createdAt,value
2024-05-09T00:23:43.615Z,94.81
2024-05-09T00:51:59.748Z,99.6
2024-05-09T01:20:58.745Z,100
2024-05-09T01:49:52.667Z,100
2024-05-09T02:18:43.182Z,100
2024-05-09T02:47:30.119Z,100
2024-05-09T03:16:09.866Z,100
2024-05-09T03:45:05.133Z,100
2024-05-09T04:13:59.838Z,100
2024-05-09T04:43:01.408Z,98.17
2024-05-09T05:12:22.298Z,83.5
2024-05-09T05:41:17.165Z,76.41
2024-05-09T06:10:39.310Z,68.52
2024-05-09T06:38:50.209Z,65.04
2024-05-09T07:07:50.902Z,66.74
2024-05-09T07:36:57.990Z,57.58
2024-05-09T08:06:00.520Z,57.42
2024-05-09T08:34:52.846Z,54.56
2024-05-09T09:03:51.783Z,50.27
2024-05-09T09:32:33.845Z,45.82
2024-05-09T10:01:29.002Z,43.83
2024-05-09T10:30:35.505Z,46.14
2024-05-09T10:58:13.856Z,45.84
2024-05-09T11:27:00.492Z,44.24
2024-05-09T11:56:07.801Z,40.83
2024-05-09T12:25:06.853Z,42.42
2024-05-09T12:53:54.533Z,42.08
2024-05-09T13:22:48.655Z,41.91
2024-05-09T13:51:50.661Z,40.97
2024-05-09T14:20:47.135Z,39.98
2024-05-09T14:49:44.071Z,41.46
2024-05-09T15:18:45.003Z,42.11
2024-05-09T15:47:16.498Z,40.96
2024-05-09T16:16:12.812Z,41.95
2024-05-09T16:45:05.584Z,43.49
2024-05-09T17:14:00.164Z,44.59
2024-05-09T17:42:51.220Z,43.75
2024-05-09T18:11:46.569Z,44.75
2024-05-09T18:40:50.321Z,50.07
2024-05-09T19:09:07.136Z,50.28
2024-05-09T19:37:36.899Z,54.56
2024-05-09T20:05:52.526Z,59.5
2024-05-09T20:34:05.800Z,63.25
2024-05-09T21:02:43.335Z,63.14
2024-05-09T21:31:22.274Z,62.63
2024-05-09T22:00:27.609Z,60.88
2024-05-09T22:28:32.465Z,74.51
2024-05-09T22:57:29.767Z,78.74
2024-05-09T23:26:25.907Z,79.89
2024-05-09T23:55:33.710Z,80.78
